sensor_id;sensor_type;location;lat;lon;timestamp;P1;durP1;ratioP1;P2;durP2;ratioP2
19163;SDS011;9714;51.208;4.242;2023-03-01T00:01:20;10.37;;;4.83;;
19163;SDS011;9714;51.208;4.242;2023-03-01T00:03:50;17.47;;;6.23;;
19163;SDS011;9714;51.208;4.242;2023-03-01T00:06:19;12.47;;;5.23;;
19163;SDS011;9714;51.208;4.242;2023-03-01T00:08:48;11.50;;;5.23;;
19163;SDS011;9714;51.208;4.242;2023-03-01T00:11:18;14.17;;;6.47;;
19163;SDS011;9714;51.208;4.242;2023-03-01T00:13:49;12.73;;;5.70;;
19163;SDS011;9714;51.208;4.242;2023-03-01T00:16:21;11.00;;;5.30;;
19163;SDS011;9714;51.208;4.242;2023-03-01T00:18:55;16.03;;;6.23;;
19163;SDS011;9714;51.208;4.242;2023-03-01T00:21:24;14.73;;;5.67;;
19163;SDS011;9714;51.208;4.242;2023-03-01T00:23:55;15.20;;;5.67;;
19163;SDS011;9714;51.208;4.242;2023-03-01T00:26:22;19.03;;;6.20;;
19163;SDS011;9714;51.208;4.242;2023-03-01T00:28:57;13.20;;;5.93;;
19163;SDS011;9714;51.208;4.242;2023-03-01T00:34:12;13.27;;;5.87;;
19163;SDS011;9714;51.208;4.242;2023-03-01T00:36:40;12.10;;;6.00;;
19163;SDS011;9714;51.208;4.242;2023-03-01T00:41:52;12.87;;;6.37;;
19163;SDS011;9714;51.208;4.242;2023-03-01T00:44:31;15.47;;;5.43;;
19163;SDS011;9714;51.208;4.242;2023-03-01T00:46:59;13.67;;;5.87;;
19163;SDS011;9714;51.208;4.242;2023-03-01T00:51:59;15.33;;;5.63;;
19163;SDS011;9714;51.208;4.242;2023-03-01T00:54:36;11.83;;;5.77;;
19163;SDS011;9714;51.208;4.242;2023-03-01T00:57:11;15.03;;;6.40;;
19163;SDS011;9714;51.208;4.242;2023-03-01T01:02:47;11.63;;;5.77;;
19163;SDS011;9714;51.208;4.242;2023-03-01T01:05:26;14.33;;;6.03;;
19163;SDS011;9714;51.208;4.242;2023-03-01T01:07:53;17.37;;;5.83;;
19163;SDS011;9714;51.208;4.242;2023-03-01T01:10:23;16.30;;;6.30;;
19163;SDS011;9714;51.208;4.242;2023-03-01T01:12:52;15.37;;;6.33;;
19163;SDS011;9714;51.208;4.242;2023-03-01T01:15:20;11.57;;;5.50;;
19163;SDS011;9714;51.208;4.242;2023-03-01T01:20:17;13.77;;;5.90;;
19163;SDS011;9714;51.208;4.242;2023-03-01T01:27:51;12.70;;;5.87;;
19163;SDS011;9714;51.208;4.242;2023-03-01T01:30:20;13.57;;;5.20;;
19163;SDS011;9714;51.208;4.242;2023-03-01T01:32:49;14.30;;;5.90;;
19163;SDS011;9714;51.208;4.242;2023-03-01T01:35:16;13.23;;;5.93;;
19163;SDS011;9714;51.208;4.242;2023-03-01T01:37:43;14.20;;;5.73;;
19163;SDS011;9714;51.208;4.242;2023-03-01T01:40:12;13.03;;;5.77;;
19163;SDS011;9714;51.208;4.242;2023-03-01T01:42:41;17.17;;;6.53;;
19163;SDS011;9714;51.208;4.242;2023-03-01T01:48:01;16.77;;;6.57;;
19163;SDS011;9714;51.208;4.242;2023-03-01T01:50:31;14.17;;;6.57;;
19163;SDS011;9714;51.208;4.242;2023-03-01T01:53:07;14.47;;;6.10;;
19163;SDS011;9714;51.208;4.242;2023-03-01T01:55:45;12.37;;;6.13;;
19163;SDS011;9714;51.208;4.242;2023-03-01T01:58:18;13.73;;;6.27;;
19163;SDS011;9714;51.208;4.242;2023-03-01T02:03:29;14.00;;;5.90;;
19163;SDS011;9714;51.208;4.242;2023-03-01T02:06:06;15.43;;;6.27;;
19163;SDS011;9714;51.208;4.242;2023-03-01T02:08:42;12.57;;;6.33;;
19163;SDS011;9714;51.208;4.242;2023-03-01T02:11:15;14.43;;;6.57;;
19163;SDS011;9714;51.208;4.242;2023-03-01T02:13:50;15.40;;;7.07;;
19163;SDS011;9714;51.208;4.242;2023-03-01T02:16:25;17.73;;;6.87;;
19163;SDS011;9714;51.208;4.242;2023-03-01T02:18:56;13.83;;;6.57;;
19163;SDS011;9714;51.208;4.242;2023-03-01T02:21:30;15.60;;;6.87;;
19163;SDS011;9714;51.208;4.242;2023-03-01T02:24:17;14.13;;;5.73;;
19163;SDS011;9714;51.208;4.242;2023-03-01T02:29:34;16.13;;;6.67;;
19163;SDS011;9714;51.208;4.242;2023-03-01T02:32:07;13.73;;;6.83;;
19163;SDS011;9714;51.208;4.242;2023-03-01T02:34:39;16.20;;;7.07;;
19163;SDS011;9714;51.208;4.242;2023-03-01T02:37:08;16.47;;;7.00;;
19163;SDS011;9714;51.208;4.242;2023-03-01T02:42:47;14.90;;;6.70;;
19163;SDS011;9714;51.208;4.242;2023-03-01T02:47:53;18.43;;;7.10;;
19163;SDS011;9714;51.208;4.242;2023-03-01T02:50:26;18.27;;;7.07;;
19163;SDS011;9714;51.208;4.242;2023-03-01T02:53:15;22.50;;;7.10;;
19163;SDS011;9714;51.208;4.242;2023-03-01T02:55:46;17.80;;;7.33;;
19163;SDS011;9714;51.208;4.242;2023-03-01T02:58:15;19.73;;;8.10;;
19163;SDS011;9714;51.208;4.242;2023-03-01T03:03:22;16.40;;;6.97;;
19163;SDS011;9714;51.208;4.242;2023-03-01T03:05:49;20.87;;;7.03;;
19163;SDS011;9714;51.208;4.242;2023-03-01T03:08:34;20.30;;;7.37;;
19163;SDS011;9714;51.208;4.242;2023-03-01T03:11:02;14.23;;;6.90;;
19163;SDS011;9714;51.208;4.242;2023-03-01T03:16:30;16.53;;;6.97;;
19163;SDS011;9714;51.208;4.242;2023-03-01T03:18:58;18.33;;;7.30;;
19163;SDS011;9714;51.208;4.242;2023-03-01T03:36:19;21.63;;;7.87;;
19163;SDS011;9714;51.208;4.242;2023-03-01T03:38:50;16.83;;;7.10;;
19163;SDS011;9714;51.208;4.242;2023-03-01T03:41:20;17.17;;;7.20;;
19163;SDS011;9714;51.208;4.242;2023-03-01T03:43:47;17.27;;;7.30;;
19163;SDS011;9714;51.208;4.242;2023-03-01T03:46:16;14.10;;;7.00;;
19163;SDS011;9714;51.208;4.242;2023-03-01T03:48:44;16.87;;;7.17;;
19163;SDS011;9714;51.208;4.242;2023-03-01T03:54:08;15.80;;;7.50;;
19163;SDS011;9714;51.208;4.242;2023-03-01T03:56:38;16.17;;;6.90;;
19163;SDS011;9714;51.208;4.242;2023-03-01T03:59:08;18.50;;;7.43;;
19163;SDS011;9714;51.208;4.242;2023-03-01T04:01:36;15.37;;;7.33;;
19163;SDS011;9714;51.208;4.242;2023-03-01T04:04:05;15.00;;;6.97;;
19163;SDS011;9714;51.208;4.242;2023-03-01T04:09:23;16.27;;;7.40;;
19163;SDS011;9714;51.208;4.242;2023-03-01T04:11:50;14.63;;;7.73;;
19163;SDS011;9714;51.208;4.242;2023-03-01T04:14:20;17.17;;;7.37;;
19163;SDS011;9714;51.208;4.242;2023-03-01T04:16:47;15.77;;;8.20;;
19163;SDS011;9714;51.208;4.242;2023-03-01T04:19:15;19.40;;;8.33;;
19163;SDS011;9714;51.208;4.242;2023-03-01T04:21:42;18.60;;;8.90;;
19163;SDS011;9714;51.208;4.242;2023-03-01T04:24:11;14.40;;;8.03;;
19163;SDS011;9714;51.208;4.242;2023-03-01T04:26:39;16.43;;;8.07;;
19163;SDS011;9714;51.208;4.242;2023-03-01T04:29:07;15.67;;;7.77;;
19163;SDS011;9714;51.208;4.242;2023-03-01T04:31:36;17.47;;;7.43;;
19163;SDS011;9714;51.208;4.242;2023-03-01T04:34:05;19.10;;;8.60;;
19163;SDS011;9714;51.208;4.242;2023-03-01T04:36:32;20.43;;;8.27;;
19163;SDS011;9714;51.208;4.242;2023-03-01T04:39:00;15.93;;;8.00;;
19163;SDS011;9714;51.208;4.242;2023-03-01T04:41:41;19.63;;;9.00;;
19163;SDS011;9714;51.208;4.242;2023-03-01T04:44:09;19.67;;;8.03;;
19163;SDS011;9714;51.208;4.242;2023-03-01T04:46:37;15.87;;;8.60;;
19163;SDS011;9714;51.208;4.242;2023-03-01T04:49:05;15.13;;;8.07;;
19163;SDS011;9714;51.208;4.242;2023-03-01T04:51:33;15.70;;;7.90;;
19163;SDS011;9714;51.208;4.242;2023-03-01T04:54:01;19.13;;;8.73;;
19163;SDS011;9714;51.208;4.242;2023-03-01T04:56:39;20.60;;;8.27;;
19163;SDS011;9714;51.208;4.242;2023-03-01T04:59:19;19.93;;;8.90;;
19163;SDS011;9714;51.208;4.242;2023-03-01T05:05:09;16.57;;;8.20;;
19163;SDS011;9714;51.208;4.242;2023-03-01T05:17:08;20.53;;;8.80;;
19163;SDS011;9714;51.208;4.242;2023-03-01T05:19:35;17.53;;;8.13;;
19163;SDS011;9714;51.208;4.242;2023-03-01T05:25:25;24.43;;;8.73;;
19163;SDS011;9714;51.208;4.242;2023-03-01T05:27:58;17.63;;;8.47;;
19163;SDS011;9714;51.208;4.242;2023-03-01T05:33:36;16.20;;;8.20;;
19163;SDS011;9714;51.208;4.242;2023-03-01T05:36:04;15.20;;;8.43;;
19163;SDS011;9714;51.208;4.242;2023-03-01T05:38:33;16.43;;;8.00;;
19163;SDS011;9714;51.208;4.242;2023-03-01T05:41:00;18.93;;;8.47;;
19163;SDS011;9714;51.208;4.242;2023-03-01T05:43:29;17.87;;;8.30;;
19163;SDS011;9714;51.208;4.242;2023-03-01T05:45:59;18.57;;;7.90;;
19163;SDS011;9714;51.208;4.242;2023-03-01T05:48:27;18.10;;;8.03;;
19163;SDS011;9714;51.208;4.242;2023-03-01T05:50:57;17.30;;;8.57;;
19163;SDS011;9714;51.208;4.242;2023-03-01T05:53:26;19.60;;;8.47;;
19163;SDS011;9714;51.208;4.242;2023-03-01T05:55:53;21.20;;;8.37;;
19163;SDS011;9714;51.208;4.242;2023-03-01T05:58:20;17.53;;;8.17;;
19163;SDS011;9714;51.208;4.242;2023-03-01T06:00:49;17.17;;;7.93;;
19163;SDS011;9714;51.208;4.242;2023-03-01T06:03:19;16.80;;;8.07;;
19163;SDS011;9714;51.208;4.242;2023-03-01T06:05:48;17.57;;;8.67;;
19163;SDS011;9714;51.208;4.242;2023-03-01T06:08:18;16.63;;;8.73;;
19163;SDS011;9714;51.208;4.242;2023-03-01T06:10:49;17.70;;;8.77;;
19163;SDS011;9714;51.208;4.242;2023-03-01T06:13:18;18.77;;;8.70;;
19163;SDS011;9714;51.208;4.242;2023-03-01T06:15:51;17.83;;;8.77;;
19163;SDS011;9714;51.208;4.242;2023-03-01T06:18:21;21.50;;;8.60;;
19163;SDS011;9714;51.208;4.242;2023-03-01T06:20:52;19.13;;;8.33;;
19163;SDS011;9714;51.208;4.242;2023-03-01T06:23:21;26.70;;;8.00;;
19163;SDS011;9714;51.208;4.242;2023-03-01T06:25:48;17.43;;;8.20;;
19163;SDS011;9714;51.208;4.242;2023-03-01T06:28:21;18.27;;;8.40;;
19163;SDS011;9714;51.208;4.242;2023-03-01T06:30:55;18.10;;;7.87;;
19163;SDS011;9714;51.208;4.242;2023-03-01T06:33:27;17.87;;;8.13;;
19163;SDS011;9714;51.208;4.242;2023-03-01T06:35:55;19.93;;;8.13;;
19163;SDS011;9714;51.208;4.242;2023-03-01T06:38:23;22.13;;;8.27;;
19163;SDS011;9714;51.208;4.242;2023-03-01T06:40:51;15.47;;;7.60;;
19163;SDS011;9714;51.208;4.242;2023-03-01T06:43:19;18.27;;;9.03;;
19163;SDS011;9714;51.208;4.242;2023-03-01T06:48:16;19.10;;;8.67;;
19163;SDS011;9714;51.208;4.242;2023-03-01T06:50:43;18.57;;;8.90;;
19163;SDS011;9714;51.208;4.242;2023-03-01T06:53:11;22.17;;;8.23;;
19163;SDS011;9714;51.208;4.242;2023-03-01T06:55:42;18.90;;;9.00;;
19163;SDS011;9714;51.208;4.242;2023-03-01T07:00:43;18.77;;;8.77;;
19163;SDS011;9714;51.208;4.242;2023-03-01T07:03:10;22.87;;;7.73;;
19163;SDS011;9714;51.208;4.242;2023-03-01T07:05:42;18.03;;;7.90;;
19163;SDS011;9714;51.208;4.242;2023-03-01T07:08:09;16.63;;;8.07;;
19163;SDS011;9714;51.208;4.242;2023-03-01T07:10:55;16.97;;;7.37;;
19163;SDS011;9714;51.208;4.242;2023-03-01T07:13:29;17.90;;;7.93;;
19163;SDS011;9714;51.208;4.242;2023-03-01T07:16:04;20.83;;;7.63;;
19163;SDS011;9714;51.208;4.242;2023-03-01T07:18:35;14.87;;;7.20;;
19163;SDS011;9714;51.208;4.242;2023-03-01T07:21:18;19.83;;;7.13;;
19163;SDS011;9714;51.208;4.242;2023-03-01T07:27:18;16.30;;;6.73;;
19163;SDS011;9714;51.208;4.242;2023-03-01T07:35:57;18.70;;;7.23;;
19163;SDS011;9714;51.208;4.242;2023-03-01T07:38:31;16.77;;;6.87;;
19163;SDS011;9714;51.208;4.242;2023-03-01T07:41:05;15.30;;;6.50;;
19163;SDS011;9714;51.208;4.242;2023-03-01T07:52:48;14.83;;;5.90;;
19163;SDS011;9714;51.208;4.242;2023-03-01T07:55:32;13.97;;;6.20;;
19163;SDS011;9714;51.208;4.242;2023-03-01T07:58:13;14.47;;;5.90;;
19163;SDS011;9714;51.208;4.242;2023-03-01T08:00:40;14.93;;;6.93;;
19163;SDS011;9714;51.208;4.242;2023-03-01T08:03:10;16.53;;;5.93;;
19163;SDS011;9714;51.208;4.242;2023-03-01T08:05:50;14.70;;;6.00;;
19163;SDS011;9714;51.208;4.242;2023-03-01T08:08:28;20.37;;;6.13;;
19163;SDS011;9714;51.208;4.242;2023-03-01T08:19:50;14.60;;;6.20;;
19163;SDS011;9714;51.208;4.242;2023-03-01T08:25:10;12.47;;;5.90;;
19163;SDS011;9714;51.208;4.242;2023-03-01T08:39:52;12.90;;;5.23;;
19163;SDS011;9714;51.208;4.242;2023-03-01T08:49:04;13.23;;;6.10;;
19163;SDS011;9714;51.208;4.242;2023-03-01T08:54:55;12.90;;;5.70;;
19163;SDS011;9714;51.208;4.242;2023-03-01T08:59:53;13.07;;;5.83;;
19163;SDS011;9714;51.208;4.242;2023-03-01T09:02:35;12.83;;;5.73;;
19163;SDS011;9714;51.208;4.242;2023-03-01T09:05:03;12.93;;;5.30;;
19163;SDS011;9714;51.208;4.242;2023-03-01T09:07:36;23.03;;;5.90;;
19163;SDS011;9714;51.208;4.242;2023-03-01T09:10:11;13.30;;;6.10;;
19163;SDS011;9714;51.208;4.242;2023-03-01T09:12:44;19.43;;;6.43;;
19163;SDS011;9714;51.208;4.242;2023-03-01T09:15:14;14.77;;;6.17;;
19163;SDS011;9714;51.208;4.242;2023-03-01T09:23:34;13.23;;;6.07;;
19163;SDS011;9714;51.208;4.242;2023-03-01T09:26:05;13.53;;;6.83;;
19163;SDS011;9714;51.208;4.242;2023-03-01T09:28:34;19.43;;;8.07;;
19163;SDS011;9714;51.208;4.242;2023-03-01T09:31:01;12.00;;;5.53;;
19163;SDS011;9714;51.208;4.242;2023-03-01T09:33:30;16.30;;;6.40;;
19163;SDS011;9714;51.208;4.242;2023-03-01T09:36:05;17.37;;;6.17;;
19163;SDS011;9714;51.208;4.242;2023-03-01T09:38:34;13.00;;;6.10;;
19163;SDS011;9714;51.208;4.242;2023-03-01T09:41:08;16.50;;;6.93;;
19163;SDS011;9714;51.208;4.242;2023-03-01T09:43:50;14.73;;;6.10;;
19163;SDS011;9714;51.208;4.242;2023-03-01T09:46:24;13.23;;;5.87;;
19163;SDS011;9714;51.208;4.242;2023-03-01T09:48:55;14.43;;;6.70;;
19163;SDS011;9714;51.208;4.242;2023-03-01T09:51:31;15.80;;;6.90;;
19163;SDS011;9714;51.208;4.242;2023-03-01T09:54:00;13.47;;;6.53;;
19163;SDS011;9714;51.208;4.242;2023-03-01T09:56:32;15.23;;;5.70;;
19163;SDS011;9714;51.208;4.242;2023-03-01T09:59:05;11.60;;;5.63;;
19163;SDS011;9714;51.208;4.242;2023-03-01T10:01:44;12.00;;;5.90;;
19163;SDS011;9714;51.208;4.242;2023-03-01T10:04:27;12.93;;;5.30;;
19163;SDS011;9714;51.208;4.242;2023-03-01T10:07:02;14.00;;;6.00;;
19163;SDS011;9714;51.208;4.242;2023-03-01T10:09:43;13.67;;;6.57;;
19163;SDS011;9714;51.208;4.242;2023-03-01T10:12:14;15.93;;;5.90;;
19163;SDS011;9714;51.208;4.242;2023-03-01T10:14:48;14.70;;;6.03;;
19163;SDS011;9714;51.208;4.242;2023-03-01T10:17:24;11.63;;;5.63;;
19163;SDS011;9714;51.208;4.242;2023-03-01T10:20:10;12.27;;;5.97;;
19163;SDS011;9714;51.208;4.242;2023-03-01T10:22:43;14.93;;;5.97;;
19163;SDS011;9714;51.208;4.242;2023-03-01T10:25:21;12.77;;;5.70;;
19163;SDS011;9714;51.208;4.242;2023-03-01T10:28:02;13.43;;;5.90;;
19163;SDS011;9714;51.208;4.242;2023-03-01T10:30:35;10.73;;;5.10;;
19163;SDS011;9714;51.208;4.242;2023-03-01T10:33:05;13.07;;;5.43;;
19163;SDS011;9714;51.208;4.242;2023-03-01T10:35:56;11.70;;;5.60;;
19163;SDS011;9714;51.208;4.242;2023-03-01T10:38:23;11.73;;;5.60;;
19163;SDS011;9714;51.208;4.242;2023-03-01T10:40:51;11.13;;;5.77;;
19163;SDS011;9714;51.208;4.242;2023-03-01T10:43:25;10.97;;;5.43;;
19163;SDS011;9714;51.208;4.242;2023-03-01T10:45:58;12.37;;;5.77;;
19163;SDS011;9714;51.208;4.242;2023-03-01T10:48:27;14.33;;;5.37;;
19163;SDS011;9714;51.208;4.242;2023-03-01T10:51:06;12.70;;;5.80;;
19163;SDS011;9714;51.208;4.242;2023-03-01T10:53:35;12.07;;;5.33;;
19163;SDS011;9714;51.208;4.242;2023-03-01T10:56:06;16.27;;;5.57;;
19163;SDS011;9714;51.208;4.242;2023-03-01T10:58:38;14.03;;;5.50;;
19163;SDS011;9714;51.208;4.242;2023-03-01T11:01:23;12.20;;;5.70;;
19163;SDS011;9714;51.208;4.242;2023-03-01T11:06:38;11.83;;;5.67;;
19163;SDS011;9714;51.208;4.242;2023-03-01T11:09:13;14.33;;;5.03;;
19163;SDS011;9714;51.208;4.242;2023-03-01T11:11:42;11.30;;;5.20;;
19163;SDS011;9714;51.208;4.242;2023-03-01T11:14:15;13.90;;;5.93;;
19163;SDS011;9714;51.208;4.242;2023-03-01T11:16:45;9.83;;;5.00;;
19163;SDS011;9714;51.208;4.242;2023-03-01T11:19:18;11.13;;;5.37;;
19163;SDS011;9714;51.208;4.242;2023-03-01T11:21:52;16.23;;;5.70;;
19163;SDS011;9714;51.208;4.242;2023-03-01T11:24:27;13.03;;;6.17;;
19163;SDS011;9714;51.208;4.242;2023-03-01T11:27:01;14.13;;;5.83;;
19163;SDS011;9714;51.208;4.242;2023-03-01T11:29:33;12.87;;;5.97;;
19163;SDS011;9714;51.208;4.242;2023-03-01T11:32:10;14.57;;;5.60;;
19163;SDS011;9714;51.208;4.242;2023-03-01T11:37:21;15.23;;;6.07;;
19163;SDS011;9714;51.208;4.242;2023-03-01T11:43:01;12.97;;;6.03;;
19163;SDS011;9714;51.208;4.242;2023-03-01T11:48:37;12.00;;;5.40;;
19163;SDS011;9714;51.208;4.242;2023-03-01T11:51:24;17.10;;;5.93;;
19163;SDS011;9714;51.208;4.242;2023-03-01T11:54:09;11.30;;;5.50;;
19163;SDS011;9714;51.208;4.242;2023-03-01T11:56:50;12.43;;;5.60;;
19163;SDS011;9714;51.208;4.242;2023-03-01T12:02:40;14.05;;;5.43;;
19163;SDS011;9714;51.208;4.242;2023-03-01T12:05:49;13.75;;;5.32;;
19163;SDS011;9714;51.208;4.242;2023-03-01T12:08:45;10.37;;;5.00;;
19163;SDS011;9714;51.208;4.242;2023-03-01T12:11:26;11.33;;;5.30;;
19163;SDS011;9714;51.208;4.242;2023-03-01T12:20:40;11.30;;;4.63;;
19163;SDS011;9714;51.208;4.242;2023-03-01T12:23:24;11.60;;;5.10;;
19163;SDS011;9714;51.208;4.242;2023-03-01T12:26:24;12.13;;;4.93;;
19163;SDS011;9714;51.208;4.242;2023-03-01T12:32:22;11.95;;;5.05;;
19163;SDS011;9714;51.208;4.242;2023-03-01T12:35:23;10.03;;;4.70;;
19163;SDS011;9714;51.208;4.242;2023-03-01T12:38:12;10.20;;;4.15;;
19163;SDS011;9714;51.208;4.242;2023-03-01T12:40:57;10.32;;;4.85;;
19163;SDS011;9714;51.208;4.242;2023-03-01T12:43:47;11.88;;;4.35;;
19163;SDS011;9714;51.208;4.242;2023-03-01T12:46:30;10.73;;;4.80;;
19163;SDS011;9714;51.208;4.242;2023-03-01T12:49:09;9.75;;;4.07;;
19163;SDS011;9714;51.208;4.242;2023-03-01T12:51:42;8.48;;;3.80;;
19163;SDS011;9714;51.208;4.242;2023-03-01T12:54:31;8.68;;;4.35;;
19163;SDS011;9714;51.208;4.242;2023-03-01T12:57:02;10.23;;;4.78;;
19163;SDS011;9714;51.208;4.242;2023-03-01T12:59:47;11.45;;;4.55;;
19163;SDS011;9714;51.208;4.242;2023-03-01T13:02:32;11.93;;;4.50;;
19163;SDS011;9714;51.208;4.242;2023-03-01T13:05:14;14.30;;;5.13;;
19163;SDS011;9714;51.208;4.242;2023-03-01T13:08:00;10.63;;;4.47;;
19163;SDS011;9714;51.208;4.242;2023-03-01T13:10:33;12.73;;;4.97;;
19163;SDS011;9714;51.208;4.242;2023-03-01T13:24:58;10.25;;;4.65;;
19163;SDS011;9714;51.208;4.242;2023-03-01T13:27:29;11.32;;;4.68;;
19163;SDS011;9714;51.208;4.242;2023-03-01T13:30:00;10.60;;;4.82;;
19163;SDS011;9714;51.208;4.242;2023-03-01T13:32:34;12.60;;;5.60;;
19163;SDS011;9714;51.208;4.242;2023-03-01T13:35:06;14.07;;;5.53;;
19163;SDS011;9714;51.208;4.242;2023-03-01T13:41:11;11.70;;;5.20;;
19163;SDS011;9714;51.208;4.242;2023-03-01T13:43:40;9.60;;;4.93;;
19163;SDS011;9714;51.208;4.242;2023-03-01T13:46:11;10.37;;;4.53;;
19163;SDS011;9714;51.208;4.242;2023-03-01T13:48:43;10.83;;;5.07;;
19163;SDS011;9714;51.208;4.242;2023-03-01T13:51:13;10.47;;;4.70;;
19163;SDS011;9714;51.208;4.242;2023-03-01T13:53:44;11.70;;;5.13;;
19163;SDS011;9714;51.208;4.242;2023-03-01T13:56:15;13.80;;;5.20;;
19163;SDS011;9714;51.208;4.242;2023-03-01T13:58:49;13.00;;;4.70;;
19163;SDS011;9714;51.208;4.242;2023-03-01T14:01:23;11.57;;;5.50;;
19163;SDS011;9714;51.208;4.242;2023-03-01T14:03:52;10.97;;;4.77;;
19163;SDS011;9714;51.208;4.242;2023-03-01T14:06:21;11.97;;;4.83;;
19163;SDS011;9714;51.208;4.242;2023-03-01T14:09:00;10.23;;;4.87;;
19163;SDS011;9714;51.208;4.242;2023-03-01T14:14:45;12.03;;;5.43;;
19163;SDS011;9714;51.208;4.242;2023-03-01T14:20:17;12.83;;;5.40;;
19163;SDS011;9714;51.208;4.242;2023-03-01T14:22:49;11.10;;;5.47;;
19163;SDS011;9714;51.208;4.242;2023-03-01T14:25:21;16.07;;;6.10;;
19163;SDS011;9714;51.208;4.242;2023-03-01T14:27:51;12.17;;;4.50;;
19163;SDS011;9714;51.208;4.242;2023-03-01T14:30:23;11.93;;;5.20;;
19163;SDS011;9714;51.208;4.242;2023-03-01T14:32:52;10.67;;;5.10;;
19163;SDS011;9714;51.208;4.242;2023-03-01T14:35:21;11.13;;;5.77;;
19163;SDS011;9714;51.208;4.242;2023-03-01T14:37:52;14.00;;;6.30;;
19163;SDS011;9714;51.208;4.242;2023-03-01T14:40:22;11.80;;;5.40;;
19163;SDS011;9714;51.208;4.242;2023-03-01T14:42:53;12.27;;;5.00;;
19163;SDS011;9714;51.208;4.242;2023-03-01T14:45:22;11.63;;;5.73;;
19163;SDS011;9714;51.208;4.242;2023-03-01T14:47:52;15.93;;;5.47;;
19163;SDS011;9714;51.208;4.242;2023-03-01T14:50:33;12.30;;;5.83;;
19163;SDS011;9714;51.208;4.242;2023-03-01T14:53:06;11.17;;;5.37;;
19163;SDS011;9714;51.208;4.242;2023-03-01T14:55:44;11.87;;;4.93;;
19163;SDS011;9714;51.208;4.242;2023-03-01T14:58:14;12.17;;;4.97;;
19163;SDS011;9714;51.208;4.242;2023-03-01T15:00:47;14.57;;;5.83;;
19163;SDS011;9714;51.208;4.242;2023-03-01T15:03:18;12.07;;;5.63;;
19163;SDS011;9714;51.208;4.242;2023-03-01T15:05:50;11.67;;;5.43;;
19163;SDS011;9714;51.208;4.242;2023-03-01T15:08:19;10.93;;;5.07;;
19163;SDS011;9714;51.208;4.242;2023-03-01T15:10:57;14.80;;;7.27;;
19163;SDS011;9714;51.208;4.242;2023-03-01T15:13:28;12.83;;;5.27;;
19163;SDS011;9714;51.208;4.242;2023-03-01T15:16:01;12.37;;;5.60;;
19163;SDS011;9714;51.208;4.242;2023-03-01T15:18:33;16.03;;;5.70;;
19163;SDS011;9714;51.208;4.242;2023-03-01T15:21:09;12.97;;;5.33;;
19163;SDS011;9714;51.208;4.242;2023-03-01T15:23:47;17.80;;;5.40;;
19163;SDS011;9714;51.208;4.242;2023-03-01T15:26:27;15.03;;;6.10;;
19163;SDS011;9714;51.208;4.242;2023-03-01T15:28:57;12.47;;;6.60;;
19163;SDS011;9714;51.208;4.242;2023-03-01T15:31:26;12.80;;;6.00;;
19163;SDS011;9714;51.208;4.242;2023-03-01T15:34:11;10.97;;;5.67;;
19163;SDS011;9714;51.208;4.242;2023-03-01T15:36:49;12.83;;;6.00;;
19163;SDS011;9714;51.208;4.242;2023-03-01T15:42:12;13.50;;;5.40;;
19163;SDS011;9714;51.208;4.242;2023-03-01T15:45:09;12.90;;;6.47;;
19163;SDS011;9714;51.208;4.242;2023-03-01T15:47:40;11.90;;;6.30;;
19163;SDS011;9714;51.208;4.242;2023-03-01T15:50:16;15.97;;;6.20;;
19163;SDS011;9714;51.208;4.242;2023-03-01T15:52:45;12.63;;;5.57;;
19163;SDS011;9714;51.208;4.242;2023-03-01T15:55:15;12.90;;;6.30;;
19163;SDS011;9714;51.208;4.242;2023-03-01T15:57:46;12.47;;;5.50;;
19163;SDS011;9714;51.208;4.242;2023-03-01T16:00:18;15.03;;;6.07;;
19163;SDS011;9714;51.208;4.242;2023-03-01T16:02:46;14.43;;;5.90;;
19163;SDS011;9714;51.208;4.242;2023-03-01T16:05:17;12.30;;;6.13;;
19163;SDS011;9714;51.208;4.242;2023-03-01T16:07:47;13.80;;;5.80;;
19163;SDS011;9714;51.208;4.242;2023-03-01T16:10:14;15.13;;;6.23;;
19163;SDS011;9714;51.208;4.242;2023-03-01T16:12:41;15.77;;;6.13;;
19163;SDS011;9714;51.208;4.242;2023-03-01T16:15:11;14.33;;;5.93;;
19163;SDS011;9714;51.208;4.242;2023-03-01T16:17:43;13.37;;;6.63;;
19163;SDS011;9714;51.208;4.242;2023-03-01T16:20:11;16.50;;;6.10;;
19163;SDS011;9714;51.208;4.242;2023-03-01T16:22:40;17.57;;;6.40;;
19163;SDS011;9714;51.208;4.242;2023-03-01T16:25:09;16.00;;;6.70;;
19163;SDS011;9714;51.208;4.242;2023-03-01T16:27:37;16.53;;;7.07;;
19163;SDS011;9714;51.208;4.242;2023-03-01T16:30:05;14.77;;;6.60;;
19163;SDS011;9714;51.208;4.242;2023-03-01T16:32:37;15.67;;;7.07;;
19163;SDS011;9714;51.208;4.242;2023-03-01T16:35:06;14.97;;;7.13;;
19163;SDS011;9714;51.208;4.242;2023-03-01T16:37:34;18.77;;;6.77;;
19163;SDS011;9714;51.208;4.242;2023-03-01T16:40:02;16.47;;;6.60;;
19163;SDS011;9714;51.208;4.242;2023-03-01T16:42:32;12.83;;;5.87;;
19163;SDS011;9714;51.208;4.242;2023-03-01T16:45:00;13.70;;;6.07;;
19163;SDS011;9714;51.208;4.242;2023-03-01T16:47:28;16.83;;;6.67;;
19163;SDS011;9714;51.208;4.242;2023-03-01T16:49:55;18.43;;;7.70;;
19163;SDS011;9714;51.208;4.242;2023-03-01T16:52:24;16.20;;;6.03;;
19163;SDS011;9714;51.208;4.242;2023-03-01T16:54:51;11.40;;;5.70;;
19163;SDS011;9714;51.208;4.242;2023-03-01T16:57:18;17.17;;;6.47;;
19163;SDS011;9714;51.208;4.242;2023-03-01T16:59:46;12.40;;;6.50;;
19163;SDS011;9714;51.208;4.242;2023-03-01T17:02:13;11.97;;;6.00;;
19163;SDS011;9714;51.208;4.242;2023-03-01T17:04:44;15.03;;;5.97;;
19163;SDS011;9714;51.208;4.242;2023-03-01T17:07:11;15.43;;;6.47;;
19163;SDS011;9714;51.208;4.242;2023-03-01T17:09:40;12.77;;;5.63;;
19163;SDS011;9714;51.208;4.242;2023-03-01T17:12:07;17.10;;;6.50;;
19163;SDS011;9714;51.208;4.242;2023-03-01T17:14:34;14.53;;;6.23;;
19163;SDS011;9714;51.208;4.242;2023-03-01T17:17:03;11.17;;;5.80;;
19163;SDS011;9714;51.208;4.242;2023-03-01T17:19:31;14.67;;;6.00;;
19163;SDS011;9714;51.208;4.242;2023-03-01T17:21:58;15.10;;;6.17;;
19163;SDS011;9714;51.208;4.242;2023-03-01T17:24:27;12.83;;;6.00;;
19163;SDS011;9714;51.208;4.242;2023-03-01T17:27:02;12.23;;;6.53;;
19163;SDS011;9714;51.208;4.242;2023-03-01T17:29:32;13.23;;;6.07;;
19163;SDS011;9714;51.208;4.242;2023-03-01T17:32:01;13.80;;;6.20;;
19163;SDS011;9714;51.208;4.242;2023-03-01T17:34:31;13.63;;;6.23;;
19163;SDS011;9714;51.208;4.242;2023-03-01T17:37:02;16.17;;;6.30;;
19163;SDS011;9714;51.208;4.242;2023-03-01T17:39:29;13.27;;;6.07;;
19163;SDS011;9714;51.208;4.242;2023-03-01T17:42:00;15.30;;;6.83;;
19163;SDS011;9714;51.208;4.242;2023-03-01T17:44:31;13.80;;;6.27;;
19163;SDS011;9714;51.208;4.242;2023-03-01T17:46:59;22.93;;;8.37;;
19163;SDS011;9714;51.208;4.242;2023-03-01T17:49:28;14.20;;;6.60;;
19163;SDS011;9714;51.208;4.242;2023-03-01T17:51:55;14.53;;;6.73;;
19163;SDS011;9714;51.208;4.242;2023-03-01T17:54:22;13.30;;;6.30;;
19163;SDS011;9714;51.208;4.242;2023-03-01T18:00:14;16.30;;;6.90;;
19163;SDS011;9714;51.208;4.242;2023-03-01T18:06:15;15.90;;;7.10;;
19163;SDS011;9714;51.208;4.242;2023-03-01T18:08:44;15.30;;;6.60;;
19163;SDS011;9714;51.208;4.242;2023-03-01T18:11:18;16.57;;;6.73;;
19163;SDS011;9714;51.208;4.242;2023-03-01T18:13:58;18.27;;;6.90;;
19163;SDS011;9714;51.208;4.242;2023-03-01T18:16:35;15.97;;;7.20;;
19163;SDS011;9714;51.208;4.242;2023-03-01T18:19:04;14.40;;;7.10;;
19163;SDS011;9714;51.208;4.242;2023-03-01T18:21:32;16.67;;;7.43;;
19163;SDS011;9714;51.208;4.242;2023-03-01T18:23:59;14.00;;;6.57;;
19163;SDS011;9714;51.208;4.242;2023-03-01T18:26:29;15.07;;;6.53;;
19163;SDS011;9714;51.208;4.242;2023-03-01T18:28:56;17.17;;;7.30;;
19163;SDS011;9714;51.208;4.242;2023-03-01T18:31:26;18.30;;;7.33;;
19163;SDS011;9714;51.208;4.242;2023-03-01T18:33:59;16.77;;;7.10;;
19163;SDS011;9714;51.208;4.242;2023-03-01T18:36:27;14.53;;;6.53;;
19163;SDS011;9714;51.208;4.242;2023-03-01T18:38:56;17.27;;;7.97;;